createdAt,value
2018-09-10T00:00:12.260Z,2.10
2018-09-10T00:02:40.716Z,1.60
2018-09-10T00:05:09.309Z,2.17
2018-09-10T00:07:37.906Z,1.60
2018-09-10T00:10:06.425Z,1.67
2018-09-10T00:12:34.865Z,1.80
2018-09-10T00:15:03.350Z,2.00
2018-09-10T00:17:31.864Z,1.63
2018-09-10T00:20:00.321Z,2.00
2018-09-10T00:22:28.779Z,2.53
2018-09-10T00:24:57.357Z,4.70
2018-09-10T00:27:25.752Z,1.67
2018-09-10T00:29:54.271Z,1.70
2018-09-10T00:32:22.734Z,1.63
2018-09-10T00:34:51.288Z,1.83
2018-09-10T00:37:19.849Z,1.60
2018-09-10T00:39:48.372Z,1.53
2018-09-10T00:42:16.849Z,1.93
2018-09-10T00:44:45.329Z,2.00
2018-09-10T00:47:13.784Z,1.73
2018-09-10T00:49:42.292Z,1.93
2018-09-10T00:52:10.794Z,2.00
2018-09-10T00:54:39.552Z,1.53
2018-09-10T00:57:08.012Z,1.70
2018-09-10T00:59:36.525Z,1.90
2018-09-10T01:02:05.013Z,1.70
2018-09-10T01:04:33.596Z,1.83
2018-09-10T01:07:02.321Z,2.07
2018-09-10T01:09:30.748Z,1.70
2018-09-10T01:11:59.253Z,1.77
2018-09-10T01:14:27.739Z,1.70
2018-09-10T01:16:56.188Z,1.80
2018-09-10T01:19:24.716Z,1.80
2018-09-10T01:21:53.161Z,1.60
2018-09-10T01:24:21.644Z,1.47
2018-09-10T01:26:50.144Z,1.57
2018-09-10T01:29:18.716Z,1.70
2018-09-10T01:31:47.233Z,1.30
2018-09-10T01:34:20.936Z,1.30
2018-09-10T01:36:49.392Z,1.60
2018-09-10T01:39:17.946Z,1.70
2018-09-10T01:41:46.440Z,2.03
2018-09-10T01:44:14.923Z,1.77
2018-09-10T01:46:43.405Z,1.60
2018-09-10T01:49:11.871Z,2.33
2018-09-10T01:51:40.378Z,1.60
2018-09-10T01:54:08.850Z,1.97
2018-09-10T01:56:37.324Z,1.80
2018-09-10T01:59:05.832Z,1.37
2018-09-10T02:01:34.329Z,1.73
2018-09-10T02:04:02.764Z,1.80
2018-09-10T02:06:31.262Z,1.30
2018-09-10T02:08:59.757Z,1.80
2018-09-10T02:11:28.256Z,1.73
2018-09-10T02:13:56.742Z,1.43
2018-09-10T02:16:25.196Z,1.57
2018-09-10T02:18:53.733Z,1.37
2018-09-10T02:21:22.161Z,1.30
2018-09-10T02:23:50.657Z,1.90
2018-09-10T02:26:19.265Z,1.87
2018-09-10T02:28:47.689Z,1.40
2018-09-10T02:31:16.211Z,1.40
2018-09-10T02:33:44.645Z,2.03
2018-09-10T02:36:13.150Z,1.80
2018-09-10T02:38:41.678Z,1.40
2018-09-10T02:41:10.114Z,2.00
2018-09-10T02:43:38.616Z,1.90
2018-09-10T02:46:07.468Z,2.00
2018-09-10T02:48:35.979Z,1.40
2018-09-10T02:51:04.473Z,1.70
2018-09-10T02:53:32.925Z,1.90
2018-09-10T02:56:01.392Z,1.90
2018-09-10T02:58:29.925Z,1.63
2018-09-10T03:00:58.367Z,2.00
2018-09-10T03:03:26.869Z,1.93
2018-09-10T03:05:55.316Z,1.63
2018-09-10T03:08:23.866Z,2.40
2018-09-10T03:10:52.360Z,1.70
2018-09-10T03:13:20.833Z,2.00
2018-09-10T03:15:49.244Z,1.97
2018-09-10T03:18:17.760Z,2.23
2018-09-10T03:20:46.225Z,2.10
2018-09-10T03:23:14.724Z,2.20
2018-09-10T03:25:43.198Z,1.90
2018-09-10T03:28:11.704Z,2.00
2018-09-10T03:30:40.235Z,2.37
2018-09-10T03:33:08.794Z,2.70
2018-09-10T03:35:37.240Z,1.60
2018-09-10T03:38:05.757Z,1.93
2018-09-10T03:40:34.202Z,1.73
2018-09-10T03:43:02.684Z,1.50
2018-09-10T03:45:31.177Z,2.13
2018-09-10T03:47:59.623Z,1.53
2018-09-10T03:50:28.152Z,1.87
2018-09-10T03:52:56.596Z,1.97
2018-09-10T03:55:25.093Z,1.90
2018-09-10T03:57:53.553Z,2.20
2018-09-10T04:00:22.048Z,2.13
2018-09-10T04:02:50.572Z,1.80
2018-09-10T04:05:19.047Z,1.90
2018-09-10T04:07:47.629Z,2.30
2018-09-10T04:10:16.060Z,1.70
2018-09-10T04:12:44.545Z,2.13
2018-09-10T04:15:13.130Z,2.23
2018-09-10T04:17:41.650Z,2.00
2018-09-10T04:20:11.016Z,2.20
2018-09-10T04:22:41.144Z,1.73
2018-09-10T04:25:09.654Z,1.93
2018-09-10T04:27:38.499Z,2.10
2018-09-10T04:30:09.874Z,2.10
2018-09-10T04:32:38.372Z,1.60
2018-09-10T04:35:06.896Z,2.20
2018-09-10T04:37:35.471Z,1.87
2018-09-10T04:40:04.348Z,2.03
2018-09-10T04:42:32.795Z,2.20
2018-09-10T04:45:01.709Z,1.80
2018-09-10T04:47:30.146Z,2.27
2018-09-10T04:49:58.616Z,2.13
2018-09-10T04:52:27.133Z,2.20
2018-09-10T04:54:55.807Z,1.97
2018-09-10T04:57:24.405Z,2.20
2018-09-10T04:59:52.866Z,2.03
2018-09-10T05:02:21.380Z,2.30
2018-09-10T05:04:49.830Z,2.00
2018-09-10T05:07:18.322Z,2.37
2018-09-10T05:09:46.856Z,2.60
2018-09-10T05:12:15.325Z,2.37
2018-09-10T05:14:43.773Z,6.00
2018-09-10T05:17:12.246Z,3.70
2018-09-10T05:19:40.725Z,2.60
2018-09-10T05:22:09.307Z,2.57
2018-09-10T05:24:37.691Z,2.23
2018-09-10T05:34:05.413Z,3.27
2018-09-10T05:36:33.876Z,3.47
2018-09-10T05:39:02.565Z,3.67
2018-09-10T05:41:31.113Z,3.90
2018-09-10T05:43:59.559Z,3.23
2018-09-10T05:46:28.016Z,3.97
2018-09-10T05:48:56.498Z,3.87
2018-09-10T05:51:24.956Z,4.77
2018-09-10T05:53:53.473Z,3.80
2018-09-10T05:56:21.947Z,3.20
2018-09-10T05:58:50.440Z,4.00
2018-09-10T06:01:18.937Z,3.87
2018-09-10T06:03:47.380Z,4.90
2018-09-10T06:06:15.889Z,4.80
2018-09-10T06:08:44.374Z,4.20
2018-09-10T06:11:12.817Z,5.10
2018-09-10T06:13:41.332Z,5.63
2018-09-10T06:16:09.838Z,5.00
2018-09-10T06:18:38.348Z,5.27
2018-09-10T06:21:06.853Z,5.23
2018-09-10T06:23:35.352Z,4.20
2018-09-10T06:26:03.877Z,4.90
2018-09-10T06:28:32.325Z,5.13
2018-09-10T06:31:00.812Z,4.90
2018-09-10T06:33:29.284Z,5.10
2018-09-10T06:35:57.780Z,5.37
2018-09-10T06:38:26.231Z,5.97
2018-09-10T06:40:54.851Z,5.57
2018-09-10T06:43:23.382Z,5.63
2018-09-10T06:45:52.419Z,5.17
2018-09-10T06:48:20.982Z,5.27
2018-09-10T06:50:49.664Z,5.77
2018-09-10T06:53:18.210Z,6.23
2018-09-10T06:55:46.737Z,5.30
2018-09-10T06:58:15.213Z,4.63
2018-09-10T07:00:43.717Z,4.80
2018-09-10T07:03:12.252Z,5.43
2018-09-10T07:05:40.804Z,5.43
2018-09-10T07:08:09.311Z,5.30
2018-09-10T07:10:37.847Z,5.30
2018-09-10T07:13:06.592Z,5.80
2018-09-10T07:15:35.198Z,5.23
2018-09-10T07:18:03.729Z,6.27
2018-09-10T07:20:32.160Z,5.40
2018-09-10T07:23:00.664Z,5.43
2018-09-10T07:25:29.123Z,5.70
2018-09-10T07:27:57.593Z,23.77
2018-09-10T07:30:26.117Z,5.63
2018-09-10T07:32:54.557Z,5.53
2018-09-10T07:35:23.053Z,5.90
2018-09-10T07:37:51.512Z,5.73
2018-09-10T07:40:20.027Z,5.80
2018-09-10T07:42:48.601Z,5.83
2018-09-10T07:45:17.132Z,5.53
2018-09-10T07:47:45.540Z,6.20
2018-09-10T07:50:14.059Z,5.67
2018-09-10T07:52:42.532Z,5.37
2018-09-10T07:55:11.016Z,6.20
2018-09-10T07:57:39.563Z,5.60
2018-09-10T08:00:08.793Z,5.30
2018-09-10T08:02:37.295Z,6.33
2018-09-10T08:05:05.866Z,6.90
2018-09-10T08:07:34.333Z,5.60
2018-09-10T08:10:02.845Z,7.13
2018-09-10T08:12:31.405Z,6.43
2018-09-10T08:14:59.881Z,7.60
2018-09-10T08:17:28.350Z,7.00
2018-09-10T08:19:56.931Z,6.63
2018-09-10T08:22:25.344Z,12.30
2018-09-10T08:24:53.887Z,6.93
2018-09-10T08:27:22.402Z,6.43
2018-09-10T08:29:50.929Z,6.37
2018-09-10T08:32:19.350Z,6.80
2018-09-10T08:34:47.868Z,6.63
2018-09-10T08:37:16.307Z,7.00
2018-09-10T08:39:44.805Z,6.20
2018-09-10T08:42:13.497Z,18.03
2018-09-10T08:44:41.984Z,5.60
2018-09-10T08:47:10.452Z,4.97
2018-09-10T08:49:38.954Z,4.97
2018-09-10T08:52:07.431Z,5.00
2018-09-10T08:54:36.287Z,4.70
2018-09-10T08:58:07.658Z,5.27
2018-09-10T09:00:36.149Z,5.03
2018-09-10T09:03:04.944Z,4.77
2018-09-10T09:05:33.432Z,4.60
2018-09-10T09:08:01.916Z,4.87
2018-09-10T09:10:30.437Z,5.20
2018-09-10T09:12:58.867Z,5.47
2018-09-10T09:15:27.988Z,5.33
2018-09-10T09:17:57.157Z,5.40
2018-09-10T09:20:25.638Z,4.87
2018-09-10T09:22:54.115Z,5.00
2018-09-10T09:25:22.924Z,5.07
2018-09-10T09:27:51.377Z,4.10
2018-09-10T09:30:20.016Z,3.80
2018-09-10T09:32:48.458Z,3.60
2018-09-10T09:35:17.055Z,3.50
2018-09-10T09:37:50.854Z,4.90
2018-09-10T09:40:24.670Z,3.80
2018-09-10T09:42:58.475Z,4.13
2018-09-10T09:45:32.282Z,4.20
2018-09-10T09:48:00.743Z,6.23
2018-09-10T09:50:29.237Z,4.77
2018-09-10T09:52:57.820Z,4.53
2018-09-10T09:55:26.288Z,5.13
2018-09-10T09:57:54.761Z,4.07
2018-09-10T10:00:28.607Z,4.30
2018-09-10T10:02:57.532Z,3.70
2018-09-10T10:05:25.957Z,4.10
2018-09-10T10:07:54.443Z,4.00
2018-09-10T10:10:23.091Z,3.00
2018-09-10T10:12:51.379Z,2.90
2018-09-10T10:15:20.226Z,3.53
2018-09-10T10:17:48.674Z,3.80
2018-09-10T10:20:17.166Z,4.30
2018-09-10T10:22:45.736Z,4.20
2018-09-10T10:25:14.225Z,4.60
2018-09-10T10:27:42.741Z,5.60
2018-09-10T10:30:11.217Z,4.30
2018-09-10T10:32:39.669Z,6.43
2018-09-10T10:35:08.193Z,4.43
2018-09-10T10:37:37.628Z,7.27
2018-09-10T10:40:06.197Z,5.30
2018-09-10T10:42:34.617Z,5.40
2018-09-10T10:45:03.129Z,5.70
2018-09-10T10:47:31.625Z,5.50
2018-09-10T10:50:00.077Z,5.27
2018-09-10T10:52:28.564Z,6.07
2018-09-10T10:54:57.088Z,5.87
2018-09-10T10:57:25.516Z,5.80
2018-09-10T10:59:54.116Z,4.80
2018-09-10T11:02:22.582Z,4.93
2018-09-10T11:04:51.069Z,6.23
2018-09-10T11:07:19.521Z,5.70
2018-09-10T11:09:48.067Z,5.97
2018-09-10T11:12:16.565Z,7.77
2018-09-10T11:14:45.002Z,8.20
2018-09-10T11:17:13.483Z,6.43
2018-09-10T11:19:42.055Z,5.23
2018-09-10T11:22:10.560Z,5.33
2018-09-10T11:24:39.017Z,5.67
2018-09-10T11:27:07.525Z,5.20
2018-09-10T11:29:36.097Z,5.07
2018-09-10T11:32:04.546Z,5.20
2018-09-10T11:34:33.072Z,5.07
2018-09-10T11:37:01.505Z,5.57
2018-09-10T11:39:30.023Z,5.37
2018-09-10T11:41:58.525Z,5.40
2018-09-10T11:44:27.023Z,4.70
2018-09-10T11:46:55.450Z,5.70
2018-09-10T11:49:23.950Z,4.60
2018-09-10T11:51:52.415Z,4.80
2018-09-10T11:54:20.911Z,5.03
2018-09-10T11:56:49.356Z,3.87
2018-09-10T11:59:17.925Z,4.13
2018-09-10T12:01:46.472Z,5.00
2018-09-10T12:04:14.928Z,4.90
2018-09-10T12:06:43.653Z,4.10
2018-09-10T12:09:12.372Z,4.60
2018-09-10T12:11:41.125Z,3.80
2018-09-10T12:14:09.612Z,4.20
2018-09-10T12:16:39.373Z,3.30
2018-09-10T12:19:07.953Z,3.80
2018-09-10T12:21:36.539Z,3.80
2018-09-10T12:24:05.051Z,3.80
2018-09-10T12:26:33.565Z,3.30
2018-09-10T12:29:01.995Z,4.27
2018-09-10T12:31:30.498Z,3.53
2018-09-10T12:33:58.961Z,4.63
2018-09-10T12:36:27.461Z,4.00
2018-09-10T12:38:56.081Z,4.43
2018-09-10T12:41:24.526Z,3.43
2018-09-10T12:43:52.985Z,3.93
2018-09-10T12:46:21.539Z,3.53
2018-09-10T12:48:50.040Z,3.53
2018-09-10T12:51:18.589Z,3.40
2018-09-10T12:53:47.001Z,3.23
2018-09-10T12:56:15.516Z,3.10
2018-09-10T12:58:44.097Z,3.60
2018-09-10T13:01:12.608Z,3.70
2018-09-10T13:03:41.030Z,2.83
2018-09-10T13:06:09.564Z,3.57
2018-09-10T13:08:38.145Z,3.83
2018-09-10T13:11:07.628Z,4.10
2018-09-10T13:13:36.093Z,3.83
2018-09-10T13:16:04.618Z,4.17
2018-09-10T13:18:33.116Z,3.40
2018-09-10T13:21:01.901Z,3.27
2018-09-10T13:23:30.400Z,4.10
2018-09-10T13:25:58.924Z,3.60
2018-09-10T13:28:27.396Z,3.70
2018-09-10T13:30:55.877Z,3.97
2018-09-10T13:33:24.358Z,3.13
2018-09-10T13:35:52.882Z,3.60
2018-09-10T13:38:21.338Z,3.23
2018-09-10T13:40:49.818Z,3.53
2018-09-10T13:43:18.293Z,3.43
2018-09-10T13:45:46.837Z,3.67
2018-09-10T13:48:15.258Z,3.30
2018-09-10T13:50:43.737Z,2.70
2018-09-10T13:53:12.208Z,3.87
2018-09-10T13:55:40.718Z,3.70
2018-09-10T13:58:09.719Z,3.97
2018-09-10T14:00:38.176Z,3.80
2018-09-10T14:03:06.656Z,2.97
2018-09-10T14:05:36.193Z,3.70
2018-09-10T14:08:04.680Z,2.87
2018-09-10T14:10:33.225Z,2.73
2018-09-10T14:13:01.687Z,2.63
2018-09-10T14:15:30.204Z,2.63
2018-09-10T14:17:58.704Z,2.20
2018-09-10T14:20:27.284Z,2.93
2018-09-10T14:22:55.729Z,2.87
2018-09-10T14:25:24.256Z,3.07
2018-09-10T14:27:52.749Z,3.20
2018-09-10T14:30:21.190Z,3.00
2018-09-10T14:32:49.736Z,2.67
2018-09-10T14:35:18.305Z,2.73
2018-09-10T14:37:46.753Z,3.20
2018-09-10T14:40:15.241Z,2.97
2018-09-10T14:42:43.712Z,3.10
2018-09-10T14:45:12.274Z,3.00
2018-09-10T14:47:41.926Z,3.10
2018-09-10T14:50:10.440Z,2.70
2018-09-10T14:52:38.958Z,3.50
2018-09-10T14:55:07.442Z,2.40
2018-09-10T14:57:35.950Z,2.97
2018-09-10T15:00:04.769Z,2.80
2018-09-10T15:02:33.204Z,2.20
2018-09-10T15:05:01.679Z,3.13
2018-09-10T15:07:30.180Z,3.10
2018-09-10T15:09:58.655Z,2.60
2018-09-10T15:12:27.575Z,3.27
2018-09-10T15:14:56.007Z,2.30
2018-09-10T15:17:24.569Z,2.77
2018-09-10T15:19:53.393Z,2.90
2018-09-10T15:22:21.889Z,3.17
2018-09-10T15:24:50.335Z,2.90
2018-09-10T15:27:18.869Z,2.30
2018-09-10T15:29:47.455Z,2.40
2018-09-10T15:32:15.918Z,2.83
2018-09-10T15:34:44.506Z,2.50
2018-09-10T15:37:12.985Z,3.30
2018-09-10T15:39:41.478Z,2.30
2018-09-10T15:42:09.957Z,2.70
2018-09-10T15:44:38.407Z,3.10
2018-09-10T15:47:06.957Z,2.60
2018-09-10T15:49:35.522Z,2.73
2018-09-10T15:52:04.012Z,2.67
2018-09-10T15:54:32.757Z,3.20
2018-09-10T15:57:01.365Z,2.80
2018-09-10T15:59:30.021Z,2.93
2018-09-10T16:01:59.126Z,3.33
2018-09-10T16:04:27.978Z,2.70
2018-09-10T16:06:56.864Z,2.70
2018-09-10T16:09:25.444Z,2.63
2018-09-10T16:11:54.498Z,2.90
2018-09-10T16:14:23.201Z,3.00
2018-09-10T16:16:52.305Z,2.50
2018-09-10T16:19:22.200Z,1.77
2018-09-10T16:21:51.509Z,2.73
2018-09-10T16:24:20.779Z,2.83
2018-09-10T16:26:49.764Z,2.90
2018-09-10T16:29:18.264Z,3.07
2018-09-10T16:31:46.788Z,2.67
2018-09-10T16:34:15.250Z,2.53
2018-09-10T16:36:44.880Z,2.10
2018-09-10T16:39:14.002Z,2.83
2018-09-10T16:41:46.181Z,2.60
2018-09-10T16:44:15.280Z,2.33
2018-09-10T16:46:43.774Z,3.57
2018-09-10T16:49:12.342Z,2.90
2018-09-10T16:51:40.831Z,2.00
2018-09-10T16:54:09.433Z,3.27
2018-09-10T16:56:37.793Z,2.80
2018-09-10T16:59:06.324Z,3.27
2018-09-10T17:01:34.834Z,2.37
2018-09-10T17:04:03.361Z,3.00
2018-09-10T17:06:31.835Z,2.47
2018-09-10T17:09:00.340Z,4.60
2018-09-10T17:11:28.819Z,2.60
2018-09-10T17:13:57.328Z,2.40
2018-09-10T17:16:25.766Z,2.90
2018-09-10T17:18:54.268Z,2.70
2018-09-10T17:21:22.719Z,3.30
2018-09-10T17:23:51.233Z,2.30
2018-09-10T17:26:19.696Z,2.70
2018-09-10T17:28:48.213Z,2.60
2018-09-10T17:31:16.643Z,2.67
2018-09-10T17:33:45.146Z,2.73
2018-09-10T17:36:13.576Z,2.47
2018-09-10T17:38:42.193Z,2.40
2018-09-10T17:41:10.754Z,2.57
2018-09-10T17:43:39.305Z,2.70
2018-09-10T17:46:07.848Z,2.30
2018-09-10T17:48:36.474Z,2.50
2018-09-10T17:51:04.909Z,2.97
2018-09-10T17:53:33.404Z,3.00
2018-09-10T17:56:01.944Z,2.77
2018-09-10T17:58:30.486Z,2.50
2018-09-10T18:00:58.968Z,3.40
2018-09-10T18:03:27.436Z,3.13
2018-09-10T18:05:55.888Z,3.30
2018-09-10T18:08:24.427Z,2.90
2018-09-10T18:10:53.300Z,2.87
2018-09-10T18:13:21.883Z,3.13
2018-09-10T18:15:50.506Z,2.57
2018-09-10T18:18:18.957Z,3.50
2018-09-10T18:20:47.406Z,2.50
2018-09-10T18:23:16.128Z,2.60
2018-09-10T18:25:44.621Z,2.97
2018-09-10T18:28:14.233Z,3.30
2018-09-10T18:30:43.712Z,3.00
2018-09-10T18:33:12.337Z,3.00
2018-09-10T18:35:41.094Z,3.13
2018-09-10T18:38:09.739Z,3.90
2018-09-10T18:40:38.278Z,3.60
2018-09-10T18:43:07.096Z,3.20
2018-09-10T18:45:35.949Z,3.23
2018-09-10T18:48:04.497Z,2.60
2018-09-10T18:50:33.022Z,2.93
2018-09-10T18:53:01.609Z,3.30
2018-09-10T18:55:30.049Z,2.63
2018-09-10T18:57:59.560Z,2.80
2018-09-10T19:00:28.309Z,5.63
2018-09-10T19:02:56.984Z,3.27
2018-09-10T19:05:25.576Z,2.97
2018-09-10T19:07:54.291Z,3.30
2018-09-10T19:10:22.994Z,3.27
2018-09-10T19:12:51.718Z,5.13
2018-09-10T19:15:20.575Z,3.73
2018-09-10T19:17:49.488Z,3.40
2018-09-10T19:20:18.229Z,3.60
2018-09-10T19:22:47.072Z,3.30
2018-09-10T19:25:15.770Z,3.27
2018-09-10T19:27:44.309Z,3.90
2018-09-10T19:30:12.907Z,4.60
2018-09-10T19:32:41.598Z,3.30
2018-09-10T19:35:10.105Z,4.87
2018-09-10T19:37:38.638Z,3.63
2018-09-10T19:40:07.061Z,4.27
2018-09-10T19:42:35.572Z,3.90
2018-09-10T19:45:04.189Z,4.37
2018-09-10T19:47:32.680Z,3.47
2018-09-10T19:50:01.164Z,4.40
2018-09-10T19:52:29.636Z,3.60
2018-09-10T19:54:58.120Z,3.90
2018-09-10T19:57:26.710Z,4.63
2018-09-10T19:59:55.203Z,5.57
2018-09-10T20:02:23.690Z,4.50
2018-09-10T20:04:52.151Z,5.13
2018-09-10T20:07:20.842Z,4.33
2018-09-10T20:09:49.380Z,3.80
2018-09-10T20:12:17.802Z,4.60
2018-09-10T20:14:46.276Z,5.47
2018-09-10T20:17:14.779Z,3.63
2018-09-10T20:19:43.240Z,6.50
2018-09-10T20:22:15.331Z,5.10
2018-09-10T20:24:43.828Z,5.03
2018-09-10T20:27:12.502Z,3.90
2018-09-10T20:29:40.961Z,4.80
2018-09-10T20:32:09.917Z,4.80
2018-09-10T20:34:38.529Z,4.70
2018-09-10T20:37:07.082Z,5.33
2018-09-10T20:39:35.678Z,5.00
2018-09-10T20:42:04.265Z,4.03
2018-09-10T20:44:32.780Z,4.37
2018-09-10T20:47:01.248Z,4.40
2018-09-10T20:49:29.776Z,4.00
2018-09-10T20:51:58.239Z,3.77
2018-09-10T20:54:26.752Z,3.80
2018-09-10T20:56:55.160Z,3.50
2018-09-10T20:59:24.585Z,3.40
2018-09-10T21:01:53.102Z,3.50
2018-09-10T21:04:21.537Z,3.97
2018-09-10T21:06:50.017Z,3.90
2018-09-10T21:09:18.517Z,3.57
2018-09-10T21:11:47.059Z,4.23
2018-09-10T21:14:15.723Z,3.00
2018-09-10T21:16:44.148Z,4.47
2018-09-10T21:19:12.700Z,3.80
2018-09-10T21:21:41.297Z,4.07
2018-09-10T21:24:09.814Z,4.30
2018-09-10T21:26:38.336Z,4.63
2018-09-10T21:29:06.760Z,4.70
2018-09-10T21:31:36.245Z,4.30
2018-09-10T21:34:04.793Z,4.63
2018-09-10T21:36:33.257Z,3.80
2018-09-10T21:39:01.768Z,4.20
2018-09-10T21:41:30.431Z,3.97
2018-09-10T21:43:58.920Z,4.10
2018-09-10T21:46:27.454Z,3.53
2018-09-10T21:48:55.966Z,3.93
2018-09-10T21:51:24.550Z,3.50
2018-09-10T21:53:53.143Z,3.50
2018-09-10T21:56:21.696Z,3.47
2018-09-10T21:58:51.229Z,4.33
2018-09-10T22:01:19.737Z,3.60
2018-09-10T22:03:48.224Z,3.60
2018-09-10T22:06:16.794Z,3.43
2018-09-10T22:08:45.275Z,3.10
2018-09-10T22:11:13.752Z,3.27
2018-09-10T22:13:42.250Z,3.53
2018-09-10T22:16:10.829Z,3.23
2018-09-10T22:18:39.469Z,4.80
2018-09-10T22:21:07.995Z,3.23
2018-09-10T22:23:36.444Z,3.43
2018-09-10T22:26:06.157Z,3.37
2018-09-10T22:28:34.665Z,3.50
2018-09-10T22:31:03.166Z,4.03
2018-09-10T22:33:31.704Z,4.10
2018-09-10T22:36:00.241Z,4.43
2018-09-10T22:38:28.798Z,3.23
2018-09-10T22:40:57.288Z,2.93
2018-09-10T22:43:25.770Z,3.77
2018-09-10T22:45:54.218Z,2.80
2018-09-10T22:48:22.741Z,3.30
2018-09-10T22:50:51.327Z,3.33
2018-09-10T22:53:19.744Z,3.40
2018-09-10T22:55:48.259Z,3.20
2018-09-10T22:58:16.719Z,3.47
2018-09-10T23:00:45.346Z,3.40
2018-09-10T23:03:13.780Z,3.40
2018-09-10T23:05:43.362Z,3.40
2018-09-10T23:08:11.985Z,3.07
2018-09-10T23:10:40.461Z,3.20
2018-09-10T23:13:08.962Z,2.77
2018-09-10T23:15:37.433Z,2.90
2018-09-10T23:18:05.925Z,3.13
2018-09-10T23:20:34.377Z,3.40
2018-09-10T23:23:02.893Z,2.70
2018-09-10T23:25:31.429Z,2.63
2018-09-10T23:27:59.931Z,3.07
2018-09-10T23:31:31.568Z,3.50
2018-09-10T23:34:00.083Z,2.97
2018-09-10T23:36:28.538Z,2.70
2018-09-10T23:38:56.978Z,3.07
2018-09-10T23:41:25.421Z,3.23
2018-09-10T23:43:53.937Z,3.13
2018-09-10T23:46:22.478Z,2.57
2018-09-10T23:48:51.096Z,2.73
2018-09-10T23:51:19.533Z,5.67
2018-09-10T23:53:48.033Z,2.53
2018-09-10T23:56:16.538Z,3.07
2018-09-10T23:58:45.031Z,2.30
